sensor_id;sensor_type;location;lat;lon;timestamp;pressure;altitude;pressure_sealevel;temperature;humidity
21944;BME280;11136;48.778;9.126;2023-12-04T00:02:02;97460.22;;;-2.16;63.00
21944;BME280;11136;48.778;9.126;2023-12-04T00:04:27;97546.72;;;-1.75;63.18
21944;BME280;11136;48.778;9.126;2023-12-04T00:06:53;97373.13;;;-2.69;62.93
21944;BME280;11136;48.778;9.126;2023-12-04T00:09:18;97583.06;;;-1.40;62.90
21944;BME280;11136;48.778;9.126;2023-12-04T00:11:44;97453.72;;;-2.30;63.30
21944;BME280;11136;48.778;9.126;2023-12-04T00:14:09;97357.53;;;-2.91;63.04
21944;BME280;11136;48.778;9.126;2023-12-04T00:16:34;97423.91;;;-2.53;62.96
21944;BME280;11136;48.778;9.126;2023-12-04T00:19:04;97485.53;;;-2.31;63.18
21944;BME280;11136;48.778;9.126;2023-12-04T00:21:29;97156.00;;;-4.04;63.50
21944;BME280;11136;48.778;9.126;2023-12-04T00:23:54;96974.59;;;-5.07;63.12
21944;BME280;11136;48.778;9.126;2023-12-04T00:26:19;97447.59;;;-2.11;63.26
21944;BME280;11136;48.778;9.126;2023-12-04T00:28:45;97551.28;;;-1.44;62.72
21944;BME280;11136;48.778;9.126;2023-12-04T00:31:10;97529.94;;;-1.73;63.41
21944;BME280;11136;48.778;9.126;2023-12-04T00:33:36;97423.78;;;-2.42;62.70
21944;BME280;11136;48.778;9.126;2023-12-04T00:36:01;97389.50;;;-2.45;62.67
21944;BME280;11136;48.778;9.126;2023-12-04T00:38:27;97330.56;;;-2.77;62.70
21944;BME280;11136;48.778;9.126;2023-12-04T00:40:52;97508.28;;;-1.80;62.61
21944;BME280;11136;48.778;9.126;2023-12-04T00:43:17;97284.09;;;-3.02;62.54
21944;BME280;11136;48.778;9.126;2023-12-04T00:45:43;97533.75;;;-1.49;62.55
21944;BME280;11136;48.778;9.126;2023-12-04T00:48:08;97412.53;;;-2.79;62.61
21944;BME280;11136;48.778;9.126;2023-12-04T00:50:33;97534.69;;;-1.55;62.97
21944;BME280;11136;48.778;9.126;2023-12-04T00:52:59;97258.59;;;-3.31;62.43
21944;BME280;11136;48.778;9.126;2023-12-04T00:55:24;97482.47;;;-1.91;62.87
21944;BME280;11136;48.778;9.126;2023-12-04T00:57:49;97280.19;;;-3.23;62.53
21944;BME280;11136;48.778;9.126;2023-12-04T01:00:15;97165.97;;;-4.01;62.46
21944;BME280;11136;48.778;9.126;2023-12-04T01:02:41;97308.22;;;-2.92;62.37
21944;BME280;11136;48.778;9.126;2023-12-04T01:05:06;97106.91;;;-4.17;62.42
21944;BME280;11136;48.778;9.126;2023-12-04T01:07:31;97488.50;;;-2.04;62.76
21944;BME280;11136;48.778;9.126;2023-12-04T01:09:57;97513.00;;;-1.62;62.70
21944;BME280;11136;48.778;9.126;2023-12-04T01:12:22;97418.00;;;-2.49;62.39
21944;BME280;11136;48.778;9.126;2023-12-04T01:14:47;97269.25;;;-3.14;62.51
21944;BME280;11136;48.778;9.126;2023-12-04T01:17:13;97459.91;;;-1.94;62.61
21944;BME280;11136;48.778;9.126;2023-12-04T01:19:38;97395.25;;;-2.37;62.75
21944;BME280;11136;48.778;9.126;2023-12-04T01:22:05;97341.38;;;-2.71;62.38
21944;BME280;11136;48.778;9.126;2023-12-04T01:24:30;97152.13;;;-4.29;62.41
21944;BME280;11136;48.778;9.126;2023-12-04T01:26:55;97535.00;;;-1.76;63.21
21944;BME280;11136;48.778;9.126;2023-12-04T01:29:21;97264.44;;;-3.29;62.64
21944;BME280;11136;48.778;9.126;2023-12-04T01:31:46;97504.84;;;-1.76;62.82
21944;BME280;11136;48.778;9.126;2023-12-04T01:34:12;97309.19;;;-3.03;63.01
21944;BME280;11136;48.778;9.126;2023-12-04T01:36:40;97410.06;;;-2.20;62.47
21944;BME280;11136;48.778;9.126;2023-12-04T01:39:06;97478.78;;;-1.69;62.61
21944;BME280;11136;48.778;9.126;2023-12-04T01:41:31;97424.91;;;-2.06;62.52
21944;BME280;11136;48.778;9.126;2023-12-04T01:43:56;97269.09;;;-3.05;62.66
21944;BME280;11136;48.778;9.126;2023-12-04T01:46:21;97188.03;;;-3.64;62.34
21944;BME280;11136;48.778;9.126;2023-12-04T01:48:47;97407.31;;;-2.03;62.73
21944;BME280;11136;48.778;9.126;2023-12-04T01:51:12;97418.97;;;-1.99;62.46
21944;BME280;11136;48.778;9.126;2023-12-04T01:53:39;97154.63;;;-3.63;62.36
21944;BME280;11136;48.778;9.126;2023-12-04T01:56:05;97477.81;;;-1.62;62.78
21944;BME280;11136;48.778;9.126;2023-12-04T01:58:31;97425.47;;;-1.89;62.68
21944;BME280;11136;48.778;9.126;2023-12-04T02:00:57;97173.59;;;-3.45;62.64
21944;BME280;11136;48.778;9.126;2023-12-04T02:03:22;97526.41;;;-1.63;62.99
21944;BME280;11136;48.778;9.126;2023-12-04T02:05:50;97328.84;;;-2.73;62.79
21944;BME280;11136;48.778;9.126;2023-12-04T02:08:16;97273.69;;;-3.34;62.72
21944;BME280;11136;48.778;9.126;2023-12-04T02:10:44;97482.09;;;-1.67;62.92
21944;BME280;11136;48.778;9.126;2023-12-04T02:13:10;97172.97;;;-3.59;62.78
21944;BME280;11136;48.778;9.126;2023-12-04T02:15:36;97188.00;;;-3.61;62.62
21944;BME280;11136;48.778;9.126;2023-12-04T02:18:03;97335.56;;;-2.77;62.78
21944;BME280;11136;48.778;9.126;2023-12-04T02:20:32;97411.31;;;-1.93;62.73
21944;BME280;11136;48.778;9.126;2023-12-04T02:22:59;97456.84;;;-1.61;62.92
21944;BME280;11136;48.778;9.126;2023-12-04T02:25:24;97273.72;;;-2.78;62.63
21944;BME280;11136;48.778;9.126;2023-12-04T02:27:50;97272.06;;;-2.79;62.46
21944;BME280;11136;48.778;9.126;2023-12-04T02:30:19;97139.59;;;-3.64;62.67
21944;BME280;11136;48.778;9.126;2023-12-04T02:32:47;97461.88;;;-1.61;62.74
21944;BME280;11136;48.778;9.126;2023-12-04T02:35:20;97277.84;;;-2.73;62.65
21944;BME280;11136;48.778;9.126;2023-12-04T02:37:53;97112.25;;;-3.78;62.57
21944;BME280;11136;48.778;9.126;2023-12-04T02:40:19;97218.38;;;-3.24;62.92
21944;BME280;11136;48.778;9.126;2023-12-04T02:42:45;97396.47;;;-2.08;63.05
21944;BME280;11136;48.778;9.126;2023-12-04T02:45:11;97456.16;;;-1.69;63.12
21944;BME280;11136;48.778;9.126;2023-12-04T02:47:36;97446.09;;;-1.69;63.06
21944;BME280;11136;48.778;9.126;2023-12-04T02:50:02;97475.41;;;-1.68;62.86
21944;BME280;11136;48.778;9.126;2023-12-04T02:52:27;97260.47;;;-2.86;62.89
21944;BME280;11136;48.778;9.126;2023-12-04T02:54:52;97174.09;;;-3.23;62.89
21944;BME280;11136;48.778;9.126;2023-12-04T02:57:17;97471.34;;;-1.76;63.65
21944;BME280;11136;48.778;9.126;2023-12-04T02:59:43;97202.44;;;-3.18;63.43
21944;BME280;11136;48.778;9.126;2023-12-04T03:02:08;97221.50;;;-3.06;63.33
21944;BME280;11136;48.778;9.126;2023-12-04T03:04:34;97412.63;;;-1.71;63.02
21944;BME280;11136;48.778;9.126;2023-12-04T03:07:00;97339.63;;;-2.12;63.28
21944;BME280;11136;48.778;9.126;2023-12-04T03:09:25;97394.22;;;-1.71;63.02
21944;BME280;11136;48.778;9.126;2023-12-04T03:11:51;97248.47;;;-2.65;63.06
21944;BME280;11136;48.778;9.126;2023-12-04T03:14:16;97388.25;;;-1.66;63.24
21944;BME280;11136;48.778;9.126;2023-12-04T03:16:41;97156.34;;;-3.10;62.98
21944;BME280;11136;48.778;9.126;2023-12-04T03:19:07;97127.50;;;-3.33;62.91
21944;BME280;11136;48.778;9.126;2023-12-04T03:21:32;97379.00;;;-1.64;63.00
21944;BME280;11136;48.778;9.126;2023-12-04T03:23:57;97112.28;;;-3.24;62.84
21944;BME280;11136;48.778;9.126;2023-12-04T03:26:23;97296.84;;;-2.08;63.02
21944;BME280;11136;48.778;9.126;2023-12-04T03:28:48;97321.44;;;-2.27;63.09
21944;BME280;11136;48.778;9.126;2023-12-04T03:31:13;97256.22;;;-2.30;63.26
21944;BME280;11136;48.778;9.126;2023-12-04T03:33:39;97225.56;;;-2.45;62.73
21944;BME280;11136;48.778;9.126;2023-12-04T03:36:05;97108.19;;;-3.28;63.07
21944;BME280;11136;48.778;9.126;2023-12-04T03:38:30;97133.66;;;-3.02;62.75
21944;BME280;11136;48.778;9.126;2023-12-04T03:40:55;97214.88;;;-2.58;62.97
21944;BME280;11136;48.778;9.126;2023-12-04T03:43:21;97227.72;;;-2.26;63.23
21944;BME280;11136;48.778;9.126;2023-12-04T03:45:46;97350.44;;;-1.60;62.93
21944;BME280;11136;48.778;9.126;2023-12-04T03:48:11;97192.97;;;-2.50;62.56
21944;BME280;11136;48.778;9.126;2023-12-04T03:50:37;97247.41;;;-2.03;62.72
21944;BME280;11136;48.778;9.126;2023-12-04T03:53:03;97250.75;;;-2.02;63.13
21944;BME280;11136;48.778;9.126;2023-12-04T03:55:28;97224.38;;;-2.28;62.70
21944;BME280;11136;48.778;9.126;2023-12-04T03:57:54;97341.22;;;-1.59;63.29
21944;BME280;11136;48.778;9.126;2023-12-04T04:00:19;97192.97;;;-2.50;63.13
21944;BME280;11136;48.778;9.126;2023-12-04T04:02:45;97141.31;;;-2.60;62.68
21944;BME280;11136;48.778;9.126;2023-12-04T04:05:10;96959.69;;;-3.90;62.46
21944;BME280;11136;48.778;9.126;2023-12-04T04:07:36;97329.44;;;-1.56;62.86
21944;BME280;11136;48.778;9.126;2023-12-04T04:10:01;96986.34;;;-3.86;62.90
21944;BME280;11136;48.778;9.126;2023-12-04T04:12:27;97113.94;;;-3.23;62.80
21944;BME280;11136;48.778;9.126;2023-12-04T04:14:52;97039.03;;;-3.40;62.65
21944;BME280;11136;48.778;9.126;2023-12-04T04:17:18;97208.34;;;-2.19;62.77
21944;BME280;11136;48.778;9.126;2023-12-04T04:19:43;97114.91;;;-2.80;63.07
21944;BME280;11136;48.778;9.126;2023-12-04T04:22:08;97306.75;;;-1.52;62.62
21944;BME280;11136;48.778;9.126;2023-12-04T04:24:34;97315.16;;;-1.53;63.14
21944;BME280;11136;48.778;9.126;2023-12-04T04:26:59;97305.09;;;-1.53;62.84
21944;BME280;11136;48.778;9.126;2023-12-04T04:29:24;97174.53;;;-2.46;63.07
21944;BME280;11136;48.778;9.126;2023-12-04T04:31:50;97273.03;;;-1.87;63.02
21944;BME280;11136;48.778;9.126;2023-12-04T04:34:16;97330.25;;;-1.55;63.10
21944;BME280;11136;48.778;9.126;2023-12-04T04:36:42;97190.91;;;-2.27;62.85
21944;BME280;11136;48.778;9.126;2023-12-04T04:39:08;97327.66;;;-1.50;63.63
21944;BME280;11136;48.778;9.126;2023-12-04T04:41:36;97042.06;;;-3.21;62.88
21944;BME280;11136;48.778;9.126;2023-12-04T04:44:01;97311.66;;;-1.46;63.33
21944;BME280;11136;48.778;9.126;2023-12-04T04:46:26;97141.50;;;-2.69;63.16
21944;BME280;11136;48.778;9.126;2023-12-04T04:48:52;97307.38;;;-1.43;63.10
21944;BME280;11136;48.778;9.126;2023-12-04T04:51:18;97200.59;;;-2.08;62.96
21944;BME280;11136;48.778;9.126;2023-12-04T04:53:43;97098.13;;;-2.78;63.26
21944;BME280;11136;48.778;9.126;2023-12-04T04:56:09;97305.59;;;-1.38;62.90
21944;BME280;11136;48.778;9.126;2023-12-04T04:58:34;97266.03;;;-1.70;63.39
21944;BME280;11136;48.778;9.126;2023-12-04T05:00:59;97324.00;;;-1.34;63.12
21944;BME280;11136;48.778;9.126;2023-12-04T05:03:25;97136.56;;;-2.29;63.07
21944;BME280;11136;48.778;9.126;2023-12-04T05:05:50;97197.75;;;-2.35;63.01
21944;BME280;11136;48.778;9.126;2023-12-04T05:08:16;96941.34;;;-3.42;63.01
21944;BME280;11136;48.778;9.126;2023-12-04T05:10:41;97119.13;;;-2.37;63.27
21944;BME280;11136;48.778;9.126;2023-12-04T05:13:07;97277.75;;;-1.27;63.27
21944;BME280;11136;48.778;9.126;2023-12-04T05:15:34;97161.84;;;-1.95;63.38
21944;BME280;11136;48.778;9.126;2023-12-04T05:17:59;97259.25;;;-1.25;63.21
21944;BME280;11136;48.778;9.126;2023-12-04T05:20:24;96958.31;;;-3.10;63.25
21944;BME280;11136;48.778;9.126;2023-12-04T05:22:50;96925.50;;;-3.44;63.04
21944;BME280;11136;48.778;9.126;2023-12-04T05:25:15;97255.91;;;-1.25;63.60
21944;BME280;11136;48.778;9.126;2023-12-04T05:27:40;97147.59;;;-1.95;63.32
21944;BME280;11136;48.778;9.126;2023-12-04T05:30:06;96977.84;;;-2.82;63.21
21944;BME280;11136;48.778;9.126;2023-12-04T05:32:32;96810.41;;;-3.94;63.29
21944;BME280;11136;48.778;9.126;2023-12-04T05:34:57;96985.38;;;-2.82;63.33
21944;BME280;11136;48.778;9.126;2023-12-04T05:37:22;96821.78;;;-3.77;63.40
21944;BME280;11136;48.778;9.126;2023-12-04T05:39:48;97130.19;;;-2.02;63.43
21944;BME280;11136;48.778;9.126;2023-12-04T05:42:15;97144.75;;;-1.78;63.34
21944;BME280;11136;48.778;9.126;2023-12-04T05:44:41;96974.38;;;-2.77;63.53
21944;BME280;11136;48.778;9.126;2023-12-04T05:47:06;97238.03;;;-1.11;63.45
21944;BME280;11136;48.778;9.126;2023-12-04T05:49:33;97126.56;;;-1.89;63.82
21944;BME280;11136;48.778;9.126;2023-12-04T05:51:58;96861.28;;;-3.48;63.31
21944;BME280;11136;48.778;9.126;2023-12-04T05:54:24;97096.72;;;-2.04;63.67
21944;BME280;11136;48.778;9.126;2023-12-04T05:56:51;97236.34;;;-1.11;63.59
21944;BME280;11136;48.778;9.126;2023-12-04T05:59:16;97136.44;;;-1.81;63.49
21944;BME280;11136;48.778;9.126;2023-12-04T06:01:42;96969.38;;;-2.77;63.64
21944;BME280;11136;48.778;9.126;2023-12-04T06:04:07;97088.47;;;-2.09;63.32
21944;BME280;11136;48.778;9.126;2023-12-04T06:06:34;97053.75;;;-2.31;63.58
21944;BME280;11136;48.778;9.126;2023-12-04T06:08:59;97086.75;;;-2.07;64.03
21944;BME280;11136;48.778;9.126;2023-12-04T06:11:24;97011.88;;;-2.69;63.79
21944;BME280;11136;48.778;9.126;2023-12-04T06:13:50;97249.22;;;-1.26;64.77
21944;BME280;11136;48.778;9.126;2023-12-04T06:16:15;97245.91;;;-1.28;64.12
21944;BME280;11136;48.778;9.126;2023-12-04T06:18:40;97134.94;;;-1.90;64.29
21944;BME280;11136;48.778;9.126;2023-12-04T06:21:06;97174.63;;;-1.66;64.49
21944;BME280;11136;48.778;9.126;2023-12-04T06:23:32;97232.56;;;-1.30;64.34
21944;BME280;11136;48.778;9.126;2023-12-04T06:25:57;97245.16;;;-1.32;64.68
21944;BME280;11136;48.778;9.126;2023-12-04T06:28:23;97031.88;;;-2.66;63.94
21944;BME280;11136;48.778;9.126;2023-12-04T06:30:48;97006.88;;;-2.72;64.08
21944;BME280;11136;48.778;9.126;2023-12-04T06:33:14;97079.28;;;-2.10;63.78
21944;BME280;11136;48.778;9.126;2023-12-04T06:35:41;97225.53;;;-1.16;64.25
21944;BME280;11136;48.778;9.126;2023-12-04T06:38:07;97043.78;;;-2.34;64.07
21944;BME280;11136;48.778;9.126;2023-12-04T06:40:33;97214.56;;;-1.12;63.93
21944;BME280;11136;48.778;9.126;2023-12-04T06:43:01;97017.50;;;-2.18;63.76
21944;BME280;11136;48.778;9.126;2023-12-04T06:45:26;97090.75;;;-1.97;63.83
21944;BME280;11136;48.778;9.126;2023-12-04T06:47:53;97204.16;;;-0.98;64.36
21944;BME280;11136;48.778;9.126;2023-12-04T06:50:19;97305.56;;;-0.95;64.35
21944;BME280;11136;48.778;9.126;2023-12-04T06:52:44;96938.19;;;-2.65;64.05
21944;BME280;11136;48.778;9.126;2023-12-04T06:55:11;97014.94;;;-2.14;64.13
21944;BME280;11136;48.778;9.126;2023-12-04T06:57:37;96902.75;;;-2.88;63.63
21944;BME280;11136;48.778;9.126;2023-12-04T07:00:02;97162.69;;;-1.17;64.06
21944;BME280;11136;48.778;9.126;2023-12-04T07:02:28;97223.19;;;-0.86;63.79
21944;BME280;11136;48.778;9.126;2023-12-04T07:04:53;96859.78;;;-3.13;63.87
21944;BME280;11136;48.778;9.126;2023-12-04T07:07:18;96935.34;;;-2.48;63.99
21944;BME280;11136;48.778;9.126;2023-12-04T07:09:44;97223.06;;;-0.80;63.84
21944;BME280;11136;48.778;9.126;2023-12-04T07:12:09;96769.50;;;-3.50;63.55
21944;BME280;11136;48.778;9.126;2023-12-04T07:14:34;96329.66;;;-6.15;63.62
21944;BME280;11136;48.778;9.126;2023-12-04T07:17:00;97059.34;;;-1.78;63.95
21944;BME280;11136;48.778;9.126;2023-12-04T07:19:25;97139.75;;;-1.41;64.13
21944;BME280;11136;48.778;9.126;2023-12-04T07:21:52;96964.59;;;-2.47;64.02
21944;BME280;11136;48.778;9.126;2023-12-04T07:24:18;97160.47;;;-0.94;63.90
21944;BME280;11136;48.778;9.126;2023-12-04T07:26:43;97186.09;;;-0.78;64.17
21944;BME280;11136;48.778;9.126;2023-12-04T07:29:08;96893.66;;;-2.55;63.68
21944;BME280;11136;48.778;9.126;2023-12-04T07:31:34;97152.06;;;-0.93;64.08
21944;BME280;11136;48.778;9.126;2023-12-04T07:33:59;96744.13;;;-3.75;63.63
21944;BME280;11136;48.778;9.126;2023-12-04T07:36:26;96817.41;;;-2.85;63.57
21944;BME280;11136;48.778;9.126;2023-12-04T07:38:52;96929.56;;;-2.92;63.64
21944;BME280;11136;48.778;9.126;2023-12-04T07:41:19;97194.09;;;-0.63;64.11
21944;BME280;11136;48.778;9.126;2023-12-04T07:43:45;96996.13;;;-1.97;63.64
21944;BME280;11136;48.778;9.126;2023-12-04T07:46:10;96882.69;;;-2.51;63.62
21944;BME280;11136;48.778;9.126;2023-12-04T07:48:37;96904.88;;;-2.33;63.44
21944;BME280;11136;48.778;9.126;2023-12-04T07:51:02;97071.31;;;-1.52;63.71
21944;BME280;11136;48.778;9.126;2023-12-04T07:53:28;97236.13;;;-0.65;64.26
21944;BME280;11136;48.778;9.126;2023-12-04T07:55:53;96917.88;;;-2.54;64.00
21944;BME280;11136;48.778;9.126;2023-12-04T07:58:20;97164.22;;;-0.76;64.14
21944;BME280;11136;48.778;9.126;2023-12-04T08:00:47;97007.50;;;-1.82;63.45
21944;BME280;11136;48.778;9.126;2023-12-04T08:03:12;96939.00;;;-2.24;63.86
21944;BME280;11136;48.778;9.126;2023-12-04T08:05:38;96603.78;;;-4.49;63.72
21944;BME280;11136;48.778;9.126;2023-12-04T08:08:03;97011.63;;;-2.17;64.48
21944;BME280;11136;48.778;9.126;2023-12-04T08:10:29;96614.09;;;-4.23;63.94
21944;BME280;11136;48.778;9.126;2023-12-04T08:12:54;96840.47;;;-2.69;63.72
21944;BME280;11136;48.778;9.126;2023-12-04T08:15:21;96802.25;;;-2.81;63.69
21944;BME280;11136;48.778;9.126;2023-12-04T08:17:46;97038.13;;;-2.03;64.08
21944;BME280;11136;48.778;9.126;2023-12-04T08:20:12;97049.47;;;-1.16;63.77
21944;BME280;11136;48.778;9.126;2023-12-04T08:22:39;97139.97;;;-0.45;63.93
21944;BME280;11136;48.778;9.126;2023-12-04T08:25:06;96824.19;;;-2.89;63.56
21944;BME280;11136;48.778;9.126;2023-12-04T08:27:34;97006.88;;;-1.55;63.95
21944;BME280;11136;48.778;9.126;2023-12-04T08:29:59;96995.91;;;-1.52;64.13
21944;BME280;11136;48.778;9.126;2023-12-04T08:32:24;96952.59;;;-1.63;63.62
21944;BME280;11136;48.778;9.126;2023-12-04T08:34:51;96890.66;;;-2.69;64.05
21944;BME280;11136;48.778;9.126;2023-12-04T08:37:18;97001.78;;;-1.19;63.87
21944;BME280;11136;48.778;9.126;2023-12-04T08:39:44;96863.41;;;-2.49;63.49
21944;BME280;11136;48.778;9.126;2023-12-04T08:42:11;97018.69;;;-1.24;63.65
21944;BME280;11136;48.778;9.126;2023-12-04T08:44:36;96887.59;;;-2.09;63.92
21944;BME280;11136;48.778;9.126;2023-12-04T08:47:02;97041.44;;;-0.96;63.83
21944;BME280;11136;48.778;9.126;2023-12-04T08:49:29;96774.75;;;-2.48;63.99
21944;BME280;11136;48.778;9.126;2023-12-04T08:51:55;97101.44;;;-0.81;64.11
21944;BME280;11136;48.778;9.126;2023-12-04T08:54:20;96931.16;;;-1.42;63.78
21944;BME280;11136;48.778;9.126;2023-12-04T08:56:45;96847.84;;;-2.63;63.86
21944;BME280;11136;48.778;9.126;2023-12-04T08:59:11;96738.44;;;-2.35;63.71
21944;BME280;11136;48.778;9.126;2023-12-04T09:01:38;96670.94;;;-2.78;63.15
21944;BME280;11136;48.778;9.126;2023-12-04T09:04:04;96913.03;;;-1.23;63.57
21944;BME280;11136;48.778;9.126;2023-12-04T09:06:29;97170.59;;;0.02;63.96
21944;BME280;11136;48.778;9.126;2023-12-04T09:08:57;97018.56;;;-0.56;63.60
21944;BME280;11136;48.778;9.126;2023-12-04T09:11:22;97105.78;;;-0.24;63.63
21944;BME280;11136;48.778;9.126;2023-12-04T09:13:48;96813.16;;;-1.78;63.41
21944;BME280;11136;48.778;9.126;2023-12-04T09:16:17;97012.47;;;-0.49;63.82
21944;BME280;11136;48.778;9.126;2023-12-04T09:18:43;96835.66;;;-1.75;63.61
21944;BME280;11136;48.778;9.126;2023-12-04T09:21:09;96891.00;;;-1.45;63.94
21944;BME280;11136;48.778;9.126;2023-12-04T09:23:35;97110.59;;;0.15;63.89
21944;BME280;11136;48.778;9.126;2023-12-04T09:26:00;97124.69;;;0.20;63.85
21944;BME280;11136;48.778;9.126;2023-12-04T09:28:26;96975.59;;;-0.79;63.71
21944;BME280;11136;48.778;9.126;2023-12-04T09:30:51;96867.13;;;-1.29;63.67
21944;BME280;11136;48.778;9.126;2023-12-04T09:33:17;97026.44;;;-0.09;63.64
21944;BME280;11136;48.778;9.126;2023-12-04T09:35:42;97106.25;;;0.48;63.22
21944;BME280;11136;48.778;9.126;2023-12-04T09:38:07;96900.97;;;-0.80;63.24
21944;BME280;11136;48.778;9.126;2023-12-04T09:40:33;96915.97;;;-1.07;63.44
21944;BME280;11136;48.778;9.126;2023-12-04T09:42:58;96955.34;;;-0.47;63.25
21944;BME280;11136;48.778;9.126;2023-12-04T09:45:24;97042.81;;;0.34;63.34
21944;BME280;11136;48.778;9.126;2023-12-04T09:47:50;96984.22;;;-0.01;63.76
21944;BME280;11136;48.778;9.126;2023-12-04T09:50:16;97100.22;;;0.80;63.71
21944;BME280;11136;48.778;9.126;2023-12-04T09:52:49;96960.94;;;-0.09;63.63
21944;BME280;11136;48.778;9.126;2023-12-04T09:55:16;96725.03;;;-1.72;63.21
21944;BME280;11136;48.778;9.126;2023-12-04T09:57:45;97115.81;;;0.93;63.99
21944;BME280;11136;48.778;9.126;2023-12-04T10:00:13;97001.97;;;0.22;63.23
21944;BME280;11136;48.778;9.126;2023-12-04T10:02:41;97092.28;;;0.90;63.67
21944;BME280;11136;48.778;9.126;2023-12-04T10:05:07;96906.59;;;-0.16;63.50
21944;BME280;11136;48.778;9.126;2023-12-04T10:07:33;97041.06;;;0.62;63.92
21944;BME280;11136;48.778;9.126;2023-12-04T10:09:59;97007.72;;;0.54;63.41
21944;BME280;11136;48.778;9.126;2023-12-04T10:12:25;97079.56;;;1.20;63.54
21944;BME280;11136;48.778;9.126;2023-12-04T10:15:11;97081.00;;;1.27;63.17
21944;BME280;11136;48.778;9.126;2023-12-04T10:17:39;96838.66;;;-0.44;63.29
21944;BME280;11136;48.778;9.126;2023-12-04T10:20:13;96966.81;;;0.44;63.27
21944;BME280;11136;48.778;9.126;2023-12-04T10:22:53;97096.34;;;1.21;63.42
21944;BME280;11136;48.778;9.126;2023-12-04T10:25:19;97081.72;;;1.31;63.86
21944;BME280;11136;48.778;9.126;2023-12-04T10:27:46;97081.41;;;1.15;63.77
21944;BME280;11136;48.778;9.126;2023-12-04T10:30:28;97081.09;;;0.99;64.56
21944;BME280;11136;48.778;9.126;2023-12-04T10:32:55;96865.53;;;-0.45;64.41
21944;BME280;11136;48.778;9.126;2023-12-04T10:35:21;96934.03;;;-0.07;64.18
21944;BME280;11136;48.778;9.126;2023-12-04T10:37:47;96773.69;;;-0.87;64.73
21944;BME280;11136;48.778;9.126;2023-12-04T10:40:22;97076.00;;;1.01;64.85
21944;BME280;11136;48.778;9.126;2023-12-04T10:42:48;96911.66;;;0.10;64.80
21944;BME280;11136;48.778;9.126;2023-12-04T10:45:13;96720.97;;;-0.90;64.39
21944;BME280;11136;48.778;9.126;2023-12-04T10:47:41;96672.66;;;-1.28;64.79
21944;BME280;11136;48.778;9.126;2023-12-04T10:50:07;96904.16;;;0.34;64.89
21944;BME280;11136;48.778;9.126;2023-12-04T10:52:38;97061.00;;;1.21;64.89
21944;BME280;11136;48.778;9.126;2023-12-04T10:55:05;97064.19;;;1.26;65.00
21944;BME280;11136;48.778;9.126;2023-12-04T10:57:37;97028.44;;;1.38;64.44
21944;BME280;11136;48.778;9.126;2023-12-04T11:00:05;97038.16;;;1.49;64.21
21944;BME280;11136;48.778;9.126;2023-12-04T11:02:34;97002.41;;;1.60;63.95
21944;BME280;11136;48.778;9.126;2023-12-04T11:05:05;96769.69;;;0.35;64.70
21944;BME280;11136;48.778;9.126;2023-12-04T11:07:40;97009.75;;;1.89;64.19
21944;BME280;11136;48.778;9.126;2023-12-04T11:10:07;96707.66;;;0.30;63.78
21944;BME280;11136;48.778;9.126;2023-12-04T11:12:36;96890.25;;;1.42;63.82
21944;BME280;11136;48.778;9.126;2023-12-04T11:15:05;97001.00;;;2.20;64.21
21944;BME280;11136;48.778;9.126;2023-12-04T11:17:34;96855.63;;;1.22;63.93
21944;BME280;11136;48.778;9.126;2023-12-04T11:20:05;96988.00;;;2.29;63.66
21944;BME280;11136;48.778;9.126;2023-12-04T11:22:35;96870.00;;;1.43;64.40
21944;BME280;11136;48.778;9.126;2023-12-04T11:25:05;96916.75;;;1.97;63.99
21944;BME280;11136;48.778;9.126;2023-12-04T11:27:31;96834.69;;;1.42;64.45
21944;BME280;11136;48.778;9.126;2023-12-04T11:29:57;96892.66;;;1.67;64.40
21944;BME280;11136;48.778;9.126;2023-12-04T11:32:24;96711.63;;;0.36;65.30
21944;BME280;11136;48.778;9.126;2023-12-04T11:34:50;96665.91;;;0.00;65.44
21944;BME280;11136;48.778;9.126;2023-12-04T11:37:17;96910.53;;;1.62;65.98
21944;BME280;11136;48.778;9.126;2023-12-04T11:39:49;96962.25;;;1.97;65.71
21944;BME280;11136;48.778;9.126;2023-12-04T11:42:24;96671.25;;;-0.57;66.62
21944;BME280;11136;48.778;9.126;2023-12-04T11:44:56;96546.09;;;-0.54;66.25
21944;BME280;11136;48.778;9.126;2023-12-04T11:47:22;96634.47;;;0.10;66.30
21944;BME280;11136;48.778;9.126;2023-12-04T11:49:47;96877.84;;;1.58;66.38
21944;BME280;11136;48.778;9.126;2023-12-04T11:52:13;96707.19;;;0.43;66.80
21944;BME280;11136;48.778;9.126;2023-12-04T11:54:59;96757.94;;;0.80;66.81
21944;BME280;11136;48.778;9.126;2023-12-04T11:57:25;96923.44;;;1.76;67.26
21944;BME280;11136;48.778;9.126;2023-12-04T11:59:52;96803.00;;;1.11;67.36
21944;BME280;11136;48.778;9.126;2023-12-04T12:02:17;96778.25;;;0.99;67.71
21944;BME280;11136;48.778;9.126;2023-12-04T12:04:44;96894.44;;;1.65;67.74
21944;BME280;11136;48.778;9.126;2023-12-04T12:07:12;96890.91;;;1.69;67.60
21944;BME280;11136;48.778;9.126;2023-12-04T12:09:38;96597.88;;;0.00;67.43
21944;BME280;11136;48.778;9.126;2023-12-04T12:12:04;96605.38;;;0.02;67.14
21944;BME280;11136;48.778;9.126;2023-12-04T12:14:30;96636.59;;;0.43;66.77
21944;BME280;11136;48.778;9.126;2023-12-04T12:16:57;96774.09;;;1.20;66.83
21944;BME280;11136;48.778;9.126;2023-12-04T12:19:23;96750.25;;;1.27;66.82
21944;BME280;11136;48.778;9.126;2023-12-04T12:21:50;96877.53;;;2.29;66.44
21944;BME280;11136;48.778;9.126;2023-12-04T12:24:17;96627.00;;;0.74;66.10
21944;BME280;11136;48.778;9.126;2023-12-04T12:26:44;96710.34;;;1.35;66.67
21944;BME280;11136;48.778;9.126;2023-12-04T12:29:10;96757.38;;;1.80;66.31
21944;BME280;11136;48.778;9.126;2023-12-04T12:31:36;96665.94;;;1.51;66.01
21944;BME280;11136;48.778;9.126;2023-12-04T12:34:01;96684.88;;;1.41;66.01
21944;BME280;11136;48.778;9.126;2023-12-04T12:36:28;96330.22;;;-0.69;65.85
21944;BME280;11136;48.778;9.126;2023-12-04T12:38:53;96650.16;;;1.26;66.30
21944;BME280;11136;48.778;9.126;2023-12-04T12:41:19;96610.00;;;1.00;66.15
21944;BME280;11136;48.778;9.126;2023-12-04T12:43:45;96831.94;;;2.51;66.59
21944;BME280;11136;48.778;9.126;2023-12-04T12:46:11;96825.25;;;2.50;65.92
21944;BME280;11136;48.778;9.126;2023-12-04T12:48:36;96838.66;;;2.52;65.84
21944;BME280;11136;48.778;9.126;2023-12-04T12:51:02;96730.97;;;1.67;65.92
21944;BME280;11136;48.778;9.126;2023-12-04T12:53:28;96351.28;;;-0.72;66.11
21944;BME280;11136;48.778;9.126;2023-12-04T12:55:53;96726.06;;;1.64;65.74
21944;BME280;11136;48.778;9.126;2023-12-04T12:58:19;96824.28;;;2.53;65.82